Hovedside
METAR-TAF:

METAR-TAF

Lufthavner :

Tartu, Estland

Tartu lufthavn

breddegrad: 58-18N, lengdegrad: 026-44E, høyde over havet: 59 m

Gjeldene værobservasjon

Denne rapporten ble laget for 25 minutter siden, klokken 19:50 UTC
Vind 10 kt fra Vest-sørvest
Temperatur 18°C
Luftfuktighet 56%
Trykk 1008 hPa
Sikt 10 km eller mer

METAR: EETU 281950Z AUTO 24010KT 9999 NCD 18/09 Q1008

Tid: 23:15 (20:15 UTC)

Varsel

Denne rapporten ble laget for 4 timer og 15 minutter siden, klokken 16:00 UTC
Varsel gyldig fra 28. klokken 17 UTC til 28. klokken 23 UTC
Vind 20 kt fra Vest-sørvest
Sikt 10 km eller mer
ingen skyer under 1500 m og ingen bygeskyer
Midlertidig
fra 28. klokken 17 UTC til 28. klokken 19 UTC
Vind 20 kt fra Vest-sørvest med vindkast opp mot 32 kt

TAF: EETU 281600Z 2817/2823 25020KT CAVOK TEMPO 2817/2819 25020G32KT

Værobservasjoner og værvarsel for over 4000 flyplasser (METAR- og TAF-rapporter).

Tilgjengelige stasjoner er representert av de røde og gule prikkene på kartet.

Hold musepekeren over prikken for å se navnet på stasjonen.

Klikk så for å se værobservasjoner og -varsler.

For å forandre kartet kan du klikke på den grønne knappen med svart kryss for å zoome inn, på den grønne knappen med strek for å zoome ut, eller på de grønne pilene for å se tilstøtende kart.


METAR-TAF: